AFR443 SBGL-LFPG
Flight info
| Callsign | AFR443 |
|---|---|
| Flight time | N/A |
| Altitude | 31000 |
| Route | UKENU UN857 EDVUP/N0501F330 UN857 FNR/N0475F270 UB623 CVS/N0489F330 UN873 IPERA/N0482F340 DCT GDV DCT VASTO UN858 IBLIV/N0477F360 UN858 AKUDA/N0424F240 UZ1 VFA UL14 ALAGU/N0474F360 DCT BABOV DCT DELOG DCT YURZI UL14 TEPRA UN867 MOKOR/N0465F340 UN741 NTS/N0455F300 UN741 KEPER |
| Aircraft | B77W/H-SDE1E2E3FGHIJ2J3J4J5M1RWXY/LB1D1 |
Departure
| Time | 2026-05-05 20:10 |
|---|---|
| Airport | Rio Galeão – Tom Jobim International Airport (SBGL) |
Arrival
| Time | N/A |
|---|---|
| Airport | Charles de Gaulle International Airport (LFPG) |
| Time | Latitude | Longitude | Altitude | Speed | Heading |
|---|---|---|---|---|---|
| 2026-05-05 19:18 | -22.81858 | -43.23999 | 43 ft | 0 kts | 34° |
| 2026-05-05 19:53 | -22.81870 | -43.24009 | 43 ft | 2 kts | 34° |
| 2026-05-05 19:54 | -22.81878 | -43.24014 | 43 ft | 2 kts | 33° |
| 2026-05-05 19:54 | -22.81892 | -43.24022 | 43 ft | 2 kts | 14° |
| 2026-05-05 19:54 | -22.81907 | -43.24024 | 43 ft | 2 kts | 358° |
| 2026-05-05 19:54 | -22.81922 | -43.24021 | 43 ft | 2 kts | 342° |
| 2026-05-05 19:55 | -22.81936 | -43.24015 | 43 ft | 2 kts | 327° |
| 2026-05-05 19:55 | -22.81947 | -43.24005 | 43 ft | 2 kts | 311° |
| 2026-05-05 19:55 | -22.81952 | -43.23998 | 43 ft | 1 kts | 303° |
| 2026-05-05 19:55 | -22.81953 | -43.23997 | 43 ft | 0 kts | 303° |
| 2026-05-05 19:56 | -22.81953 | -43.23998 | 43 ft | 0 kts | 303° |
| 2026-05-05 19:59 | -22.81946 | -43.24008 | 43 ft | 6 kts | 306° |
| 2026-05-05 19:59 | -22.81910 | -43.24072 | 43 ft | 12 kts | 293° |
| 2026-05-05 20:00 | -22.81896 | -43.24160 | 43 ft | 12 kts | 245° |
| 2026-05-05 20:00 | -22.81939 | -43.24203 | 43 ft | 8 kts | 216° |
| 2026-05-05 20:00 | -22.81993 | -43.24245 | 43 ft | 11 kts | 216° |
| 2026-05-05 20:00 | -22.82059 | -43.24296 | 42 ft | 8 kts | 216° |
| 2026-05-05 20:01 | -22.82088 | -43.24360 | 41 ft | 9 kts | 294° |
| 2026-05-05 20:01 | -22.82055 | -43.24411 | 40 ft | 10 kts | 306° |
| 2026-05-05 20:01 | -22.82004 | -43.24488 | 40 ft | 14 kts | 306° |
| 2026-05-05 20:01 | -22.81953 | -43.24568 | 41 ft | 9 kts | 297° |
| 2026-05-05 20:02 | -22.81940 | -43.24643 | 40 ft | 9 kts | 269° |
| 2026-05-05 20:02 | -22.81914 | -43.24728 | 38 ft | 14 kts | 304° |
| 2026-05-05 20:02 | -22.81847 | -43.24831 | 37 ft | 19 kts | 305° |
| 2026-05-05 20:02 | -22.81764 | -43.24956 | 37 ft | 21 kts | 306° |
| 2026-05-05 20:03 | -22.81681 | -43.25080 | 38 ft | 18 kts | 306° |
| 2026-05-05 20:03 | -22.81610 | -43.25187 | 37 ft | 16 kts | 305° |
| 2026-05-05 20:03 | -22.81543 | -43.25290 | 37 ft | 16 kts | 305° |
| 2026-05-05 20:03 | -22.81471 | -43.25397 | 36 ft | 18 kts | 306° |
| 2026-05-05 20:04 | -22.81391 | -43.25517 | 33 ft | 20 kts | 306° |
| 2026-05-05 20:04 | -22.81313 | -43.25636 | 32 ft | 19 kts | 305° |
| 2026-05-05 20:04 | -22.81233 | -43.25757 | 31 ft | 20 kts | 305° |
| 2026-05-05 20:04 | -22.81165 | -43.25859 | 31 ft | 8 kts | 306° |
| 2026-05-05 20:05 | -22.81130 | -43.25910 | 31 ft | 6 kts | 319° |
| 2026-05-05 20:05 | -22.81082 | -43.25917 | 32 ft | 7 kts | 17° |
| 2026-05-05 20:05 | -22.81037 | -43.25887 | 33 ft | 8 kts | 33° |
| 2026-05-05 20:05 | -22.80981 | -43.25844 | 34 ft | 11 kts | 37° |
| 2026-05-05 20:06 | -22.80907 | -43.25787 | 34 ft | 15 kts | 35° |
| 2026-05-05 20:06 | -22.80815 | -43.25716 | 34 ft | 16 kts | 35° |
| 2026-05-05 20:06 | -22.80719 | -43.25642 | 31 ft | 14 kts | 36° |
| 2026-05-05 20:06 | -22.80641 | -43.25582 | 31 ft | 11 kts | 36° |
| 2026-05-05 20:07 | -22.80574 | -43.25532 | 31 ft | 7 kts | 27° |
| 2026-05-05 20:07 | -22.80519 | -43.25540 | 31 ft | 9 kts | 333° |
| 2026-05-05 20:07 | -22.80457 | -43.25582 | 31 ft | 11 kts | 326° |
| 2026-05-05 20:07 | -22.80394 | -43.25610 | 31 ft | 9 kts | 4° |
| 2026-05-05 20:08 | -22.80328 | -43.25573 | 31 ft | 11 kts | 37° |
| 2026-05-05 20:08 | -22.80259 | -43.25515 | 31 ft | 13 kts | 38° |
| 2026-05-05 20:08 | -22.80210 | -43.25504 | 30 ft | 5 kts | 358° |
| 2026-05-05 20:08 | -22.80180 | -43.25479 | 31 ft | 6 kts | 54° |
| 2026-05-05 20:09 | -22.80165 | -43.25426 | 31 ft | 16 kts | 74° |
| 2026-05-05 20:09 | -22.80079 | -43.25089 | 31 ft | 75 kts | 75° |
| 2026-05-05 20:09 | -22.79887 | -43.24341 | 31 ft | 128 kts | 74° |
| 2026-05-05 20:09 | -22.79597 | -43.23224 | 34 ft | 174 kts | 75° |
| 2026-05-05 20:10 | -22.79235 | -43.21841 | 171 ft | 200 kts | 76° |
| 2026-05-05 20:10 | -22.78858 | -43.20392 | 712 ft | 202 kts | 79° |
| 2026-05-05 20:10 | -22.78657 | -43.18883 | 1376 ft | 201 kts | 81° |
| 2026-05-05 20:10 | -22.78387 | -43.17332 | 1551 ft | 218 kts | 77° |
| 2026-05-05 20:11 | -22.78023 | -43.15650 | 1770 ft | 235 kts | 76° |
| 2026-05-05 20:11 | -22.77636 | -43.13901 | 2249 ft | 240 kts | 76° |
| 2026-05-05 20:11 | -22.77245 | -43.12127 | 2777 ft | 242 kts | 76° |
| 2026-05-05 20:11 | -22.76853 | -43.10347 | 3293 ft | 245 kts | 76° |
| 2026-05-05 20:12 | -22.76454 | -43.08534 | 3813 ft | 247 kts | 76° |
| 2026-05-05 20:12 | -22.76045 | -43.06678 | 4116 ft | 261 kts | 76° |
| 2026-05-05 20:12 | -22.75616 | -43.04734 | 4573 ft | 267 kts | 77° |
| 2026-05-05 20:12 | -22.75189 | -43.02796 | 5168 ft | 268 kts | 77° |
| 2026-05-05 20:13 | -22.74550 | -43.00910 | 5653 ft | 272 kts | 57° |
| 2026-05-05 20:13 | -22.73219 | -42.99433 | 6112 ft | 277 kts | 31° |
| 2026-05-05 20:13 | -22.71432 | -42.98709 | 6594 ft | 280 kts | 12° |
| 2026-05-05 20:13 | -22.69542 | -42.98072 | 7071 ft | 283 kts | 27° |
| 2026-05-05 20:14 | -22.67836 | -42.97000 | 7634 ft | 282 kts | 35° |
| 2026-05-05 20:14 | -22.66209 | -42.95777 | 8140 ft | 285 kts | 37° |
| 2026-05-05 20:14 | -22.64597 | -42.94515 | 8639 ft | 288 kts | 37° |
| 2026-05-05 20:14 | -22.62971 | -42.93234 | 9151 ft | 290 kts | 37° |
| 2026-05-05 20:15 | -22.61324 | -42.91940 | 9662 ft | 292 kts | 38° |
| 2026-05-05 20:15 | -22.59695 | -42.90660 | 10162 ft | 294 kts | 37° |
| 2026-05-05 20:15 | -22.58000 | -42.89328 | 10438 ft | 305 kts | 37° |
| 2026-05-05 20:15 | -22.56233 | -42.87940 | 10515 ft | 322 kts | 37° |
| 2026-05-05 20:16 | -22.54370 | -42.86477 | 10528 ft | 340 kts | 37° |
| 2026-05-05 20:16 | -22.52400 | -42.84932 | 10536 ft | 357 kts | 37° |
| 2026-05-05 20:16 | -22.50351 | -42.83325 | 10578 ft | 372 kts | 37° |
| 2026-05-05 20:16 | -22.48211 | -42.81647 | 10969 ft | 378 kts | 37° |
| 2026-05-05 20:17 | -22.46100 | -42.79994 | 11515 ft | 379 kts | 37° |
| 2026-05-05 20:17 | -22.43938 | -42.78301 | 12057 ft | 381 kts | 37° |
| 2026-05-05 20:17 | -22.41805 | -42.76631 | 12602 ft | 383 kts | 37° |
| 2026-05-05 20:17 | -22.39650 | -42.74945 | 13147 ft | 386 kts | 37° |
| 2026-05-05 20:18 | -22.37439 | -42.73216 | 13678 ft | 390 kts | 37° |
| 2026-05-05 20:18 | -22.35261 | -42.71512 | 14222 ft | 393 kts | 37° |
| 2026-05-05 20:18 | -22.33001 | -42.69746 | 14773 ft | 398 kts | 37° |
| 2026-05-05 20:18 | -22.30772 | -42.68004 | 15344 ft | 401 kts | 37° |
| 2026-05-05 20:19 | -22.28479 | -42.66213 | 15930 ft | 405 kts | 37° |
| 2026-05-05 20:19 | -22.26201 | -42.64434 | 16493 ft | 409 kts | 37° |
| 2026-05-05 20:19 | -22.23865 | -42.62611 | 17045 ft | 413 kts | 37° |
| 2026-05-05 20:19 | -22.21517 | -42.60780 | 17580 ft | 416 kts | 37° |
| 2026-05-05 20:20 | -22.19184 | -42.58961 | 18066 ft | 420 kts | 37° |
| 2026-05-05 20:20 | -22.16791 | -42.57095 | 18491 ft | 424 kts | 37° |
| 2026-05-05 20:20 | -22.14400 | -42.55232 | 18893 ft | 428 kts | 37° |
| 2026-05-05 20:20 | -22.11960 | -42.53332 | 19329 ft | 431 kts | 37° |
| 2026-05-05 20:21 | -22.09523 | -42.51435 | 19743 ft | 434 kts | 37° |
| 2026-05-05 20:21 | -22.07082 | -42.49536 | 20157 ft | 438 kts | 37° |
| 2026-05-05 20:21 | -22.04588 | -42.47596 | 20569 ft | 441 kts | 37° |
| 2026-05-05 20:21 | -22.02099 | -42.45661 | 20962 ft | 445 kts | 37° |
| 2026-05-05 20:22 | -21.99558 | -42.43687 | 21369 ft | 448 kts | 37° |
| 2026-05-05 20:22 | -21.97019 | -42.41714 | 21752 ft | 452 kts | 37° |
| 2026-05-05 20:22 | -21.94468 | -42.39734 | 22122 ft | 455 kts | 37° |
| 2026-05-05 20:22 | -21.91876 | -42.37722 | 22512 ft | 458 kts | 37° |
| 2026-05-05 20:23 | -21.89288 | -42.35715 | 22905 ft | 460 kts | 38° |
| 2026-05-05 20:23 | -21.86670 | -42.33685 | 23256 ft | 464 kts | 37° |
| 2026-05-05 20:23 | -21.84057 | -42.31660 | 23620 ft | 467 kts | 37° |
| 2026-05-05 20:23 | -21.81390 | -42.29594 | 23978 ft | 470 kts | 37° |
| 2026-05-05 20:24 | -21.78765 | -42.27562 | 24322 ft | 473 kts | 37° |
| 2026-05-05 20:24 | -21.76065 | -42.25472 | 24684 ft | 476 kts | 37° |
| 2026-05-05 20:24 | -21.73360 | -42.23381 | 25011 ft | 479 kts | 37° |
| 2026-05-05 20:24 | -21.70672 | -42.21302 | 25355 ft | 482 kts | 37° |
| 2026-05-05 20:25 | -21.67931 | -42.19184 | 25724 ft | 484 kts | 37° |
| 2026-05-05 20:25 | -21.65164 | -42.17047 | 26098 ft | 486 kts | 36° |
| 2026-05-05 20:25 | -21.62411 | -42.14922 | 26420 ft | 489 kts | 36° |
| 2026-05-05 20:25 | -21.59641 | -42.12784 | 26738 ft | 492 kts | 36° |
| 2026-05-05 20:26 | -21.56843 | -42.10626 | 27068 ft | 494 kts | 36° |
| 2026-05-05 20:26 | -21.54029 | -42.08457 | 27388 ft | 497 kts | 36° |
| 2026-05-05 20:26 | -21.51187 | -42.06267 | 27723 ft | 499 kts | 36° |
| 2026-05-05 20:26 | -21.48347 | -42.04080 | 28057 ft | 501 kts | 36° |
| 2026-05-05 20:27 | -21.45469 | -42.01865 | 28373 ft | 504 kts | 36° |
| 2026-05-05 20:27 | -21.42593 | -41.99652 | 28659 ft | 507 kts | 36° |
| 2026-05-05 20:27 | -21.39687 | -41.97418 | 28946 ft | 510 kts | 36° |
| 2026-05-05 20:27 | -21.36788 | -41.95189 | 29248 ft | 512 kts | 36° |
| 2026-05-05 20:28 | -21.33877 | -41.92953 | 29575 ft | 513 kts | 36° |
| 2026-05-05 20:28 | -21.30957 | -41.90711 | 30013 ft | 512 kts | 36° |
| 2026-05-05 20:28 | -21.28050 | -41.88480 | 30487 ft | 510 kts | 36° |
| 2026-05-05 20:28 | -21.25119 | -41.86232 | 30919 ft | 508 kts | 35° |
| 2026-05-05 20:29 | -21.22247 | -41.84030 | 31195 ft | 509 kts | 35° |
| 2026-05-05 20:29 | -21.16141 | -41.80025 | 31210 ft | 507 kts | 28° |
| 2026-05-05 20:30 | -21.09942 | -41.76353 | 31219 ft | 506 kts | 28° |
| 2026-05-05 20:30 | -21.03704 | -41.72664 | 31231 ft | 507 kts | 28° |
| 2026-05-05 20:31 | -20.97515 | -41.69004 | 31241 ft | 507 kts | 28° |
| 2026-05-05 20:31 | -20.91271 | -41.65315 | 31240 ft | 506 kts | 28° |
| 2026-05-05 20:32 | -20.85060 | -41.61649 | 31233 ft | 507 kts | 28° |
| 2026-05-05 20:32 | -20.78813 | -41.57964 | 31228 ft | 507 kts | 28° |
| 2026-05-05 20:33 | -20.72567 | -41.54283 | 31214 ft | 507 kts | 28° |
| 2026-05-05 20:33 | -20.66380 | -41.50641 | 31214 ft | 506 kts | 28° |
| 2026-05-05 20:34 | -20.60182 | -41.46995 | 31213 ft | 506 kts | 28° |
| 2026-05-05 20:34 | -20.53974 | -41.43347 | 31221 ft | 506 kts | 28° |
| 2026-05-05 20:35 | -20.47759 | -41.39695 | 31232 ft | 506 kts | 28° |
| 2026-05-05 20:35 | -20.41593 | -41.36044 | 31244 ft | 506 kts | 28° |
| 2026-05-05 20:36 | -20.35350 | -41.32352 | 31253 ft | 506 kts | 28° |
| 2026-05-05 20:36 | -20.29132 | -41.28678 | 31264 ft | 507 kts | 28° |
| 2026-05-05 20:37 | -20.22911 | -41.25006 | 31276 ft | 505 kts | 28° |
| 2026-05-05 20:37 | -20.16721 | -41.21357 | 31266 ft | 506 kts | 28° |
| 2026-05-05 20:38 | -20.10496 | -41.17690 | 31253 ft | 504 kts | 28° |
| 2026-05-05 20:38 | -20.04273 | -41.14028 | 31242 ft | 504 kts | 28° |
| 2026-05-05 20:39 | -19.98109 | -41.10404 | 31227 ft | 503 kts | 28° |
| 2026-05-05 20:39 | -19.91900 | -41.06757 | 31228 ft | 503 kts | 28° |
| 2026-05-05 20:40 | -19.85748 | -41.03147 | 31240 ft | 506 kts | 28° |
| 2026-05-05 20:40 | -19.79507 | -40.99506 | 31258 ft | 506 kts | 28° |
| 2026-05-05 20:41 | -19.73244 | -40.95861 | 31257 ft | 506 kts | 28° |
| 2026-05-05 20:41 | -19.67004 | -40.92231 | 31222 ft | 507 kts | 28° |
| 2026-05-05 20:42 | -19.60768 | -40.88607 | 31197 ft | 506 kts | 27° |
| 2026-05-05 20:42 | -19.54556 | -40.85002 | 31175 ft | 506 kts | 27° |
| 2026-05-05 20:43 | -19.48334 | -40.81403 | 31158 ft | 506 kts | 27° |
| 2026-05-05 20:43 | -19.42034 | -40.77762 | 31157 ft | 506 kts | 27° |
| 2026-05-05 20:44 | -19.35770 | -40.74144 | 31162 ft | 507 kts | 27° |
| 2026-05-05 20:44 | -19.29538 | -40.70549 | 31162 ft | 508 kts | 27° |
| 2026-05-05 20:45 | -19.20161 | -40.65143 | 31167 ft | 508 kts | 27° |
| 2026-05-05 20:45 | -19.13838 | -40.61503 | 31167 ft | 508 kts | 27° |
| 2026-05-05 20:46 | -19.07561 | -40.57892 | 31171 ft | 508 kts | 27° |
| 2026-05-05 20:46 | -19.01307 | -40.54297 | 31170 ft | 507 kts | 27° |
| 2026-05-05 20:47 | -18.95061 | -40.50710 | 31167 ft | 507 kts | 27° |
| 2026-05-05 20:47 | -18.88792 | -40.47113 | 31163 ft | 507 kts | 27° |
| 2026-05-05 20:48 | -18.82494 | -40.43502 | 31154 ft | 508 kts | 27° |
| 2026-05-05 20:48 | -18.76217 | -40.39907 | 31151 ft | 508 kts | 27° |
| 2026-05-05 20:49 | -18.70001 | -40.36349 | 31150 ft | 508 kts | 27° |
| 2026-05-05 20:49 | -18.63786 | -40.32795 | 31141 ft | 508 kts | 26° |
| 2026-05-05 20:50 | -18.57575 | -40.29246 | 31136 ft | 507 kts | 26° |
| 2026-05-05 20:50 | -18.51347 | -40.25690 | 31131 ft | 507 kts | 26° |
| 2026-05-05 20:51 | -18.45119 | -40.22138 | 31130 ft | 505 kts | 26° |
| 2026-05-05 20:51 | -18.38888 | -40.18587 | 31128 ft | 505 kts | 26° |
| 2026-05-05 20:52 | -18.32631 | -40.15023 | 31133 ft | 506 kts | 26° |
| 2026-05-05 20:52 | -18.26405 | -40.11481 | 31128 ft | 506 kts | 26° |
| 2026-05-05 20:53 | -18.20172 | -40.07938 | 31124 ft | 507 kts | 26° |
| 2026-05-05 20:53 | -18.13933 | -40.04393 | 31123 ft | 505 kts | 26° |
| 2026-05-05 20:54 | -18.07673 | -40.00840 | 31123 ft | 505 kts | 26° |
| 2026-05-05 20:54 | -18.01442 | -39.97306 | 31121 ft | 503 kts | 26° |
| 2026-05-05 20:55 | -17.95270 | -39.93787 | 31122 ft | 505 kts | 26° |
| 2026-05-05 20:55 | -17.89037 | -39.90225 | 31121 ft | 504 kts | 26° |
| 2026-05-05 20:56 | -17.82787 | -39.86656 | 31126 ft | 506 kts | 26° |
| 2026-05-05 20:56 | -17.76552 | -39.83099 | 31123 ft | 504 kts | 26° |
| 2026-05-05 20:57 | -17.70309 | -39.79541 | 31128 ft | 506 kts | 26° |
| 2026-05-05 20:57 | -17.64078 | -39.75993 | 31129 ft | 505 kts | 25° |
| 2026-05-05 20:58 | -17.57821 | -39.72433 | 31128 ft | 505 kts | 25° |
| 2026-05-05 20:58 | -17.51569 | -39.68879 | 31132 ft | 505 kts | 25° |
| 2026-05-05 20:59 | -17.45374 | -39.65360 | 31134 ft | 505 kts | 25° |
| 2026-05-05 20:59 | -17.39124 | -39.61812 | 31131 ft | 506 kts | 25° |
| 2026-05-05 21:00 | -17.32891 | -39.58277 | 31128 ft | 506 kts | 25° |
| 2026-05-05 21:00 | -17.26635 | -39.54732 | 31129 ft | 505 kts | 25° |
| 2026-05-05 21:01 | -17.20418 | -39.51212 | 31129 ft | 506 kts | 25° |
| 2026-05-05 21:01 | -17.14177 | -39.47680 | 31130 ft | 504 kts | 25° |
| 2026-05-05 21:02 | -17.07974 | -39.44173 | 31131 ft | 504 kts | 25° |
| 2026-05-05 21:02 | -17.01719 | -39.40640 | 31141 ft | 506 kts | 25° |
| 2026-05-05 21:03 | -16.95499 | -39.37128 | 31148 ft | 506 kts | 25° |
| 2026-05-05 21:03 | -16.89214 | -39.33583 | 31131 ft | 506 kts | 25° |
| 2026-05-05 21:04 | -16.82990 | -39.30074 | 31127 ft | 505 kts | 25° |
| 2026-05-05 21:04 | -16.76787 | -39.26580 | 31126 ft | 504 kts | 25° |
| 2026-05-05 21:05 | -16.70532 | -39.23060 | 31122 ft | 504 kts | 25° |
| 2026-05-05 21:05 | -16.64315 | -39.19564 | 31122 ft | 504 kts | 25° |
| 2026-05-05 21:06 | -16.58098 | -39.16070 | 31117 ft | 503 kts | 25° |
| 2026-05-05 21:06 | -16.51901 | -39.12590 | 31121 ft | 503 kts | 25° |
| 2026-05-05 21:07 | -16.45689 | -39.09104 | 31117 ft | 502 kts | 25° |
| 2026-05-05 21:07 | -16.39468 | -39.05721 | 31114 ft | 499 kts | 24° |
| 2026-05-05 21:08 | -16.33244 | -39.02436 | 31115 ft | 499 kts | 24° |
| 2026-05-05 21:08 | -16.26989 | -38.99132 | 31113 ft | 500 kts | 24° |
| 2026-05-05 21:09 | -16.20771 | -38.95816 | 31116 ft | 499 kts | 25° |
| 2026-05-05 21:09 | -16.14618 | -38.92427 | 31115 ft | 499 kts | 25° |
| 2026-05-05 21:10 | -16.08431 | -38.89021 | 31113 ft | 498 kts | 25° |
| 2026-05-05 21:10 | -16.02238 | -38.85617 | 31109 ft | 497 kts | 25° |
| 2026-05-05 21:11 | -15.96099 | -38.82247 | 31105 ft | 498 kts | 25° |
| 2026-05-05 21:11 | -15.89927 | -38.78862 | 31106 ft | 499 kts | 25° |
| 2026-05-05 21:12 | -15.83727 | -38.75465 | 31103 ft | 498 kts | 25° |
| 2026-05-05 21:12 | -15.77526 | -38.72069 | 31104 ft | 497 kts | 25° |
| 2026-05-05 21:13 | -15.71375 | -38.68704 | 31096 ft | 496 kts | 25° |
| 2026-05-05 21:13 | -15.65183 | -38.65318 | 31092 ft | 496 kts | 25° |
| 2026-05-05 21:14 | -15.59005 | -38.61942 | 31097 ft | 496 kts | 25° |
| 2026-05-05 21:14 | -15.52826 | -38.58569 | 31091 ft | 495 kts | 25° |
| 2026-05-05 21:15 | -15.46636 | -38.55191 | 31090 ft | 496 kts | 25° |
| 2026-05-05 21:15 | -15.40470 | -38.51829 | 31088 ft | 495 kts | 25° |
| 2026-05-05 21:16 | -15.34321 | -38.48478 | 31086 ft | 495 kts | 25° |
| 2026-05-05 21:16 | -15.28108 | -38.45095 | 31084 ft | 494 kts | 25° |
| 2026-05-05 21:17 | -15.21985 | -38.41763 | 31083 ft | 494 kts | 25° |
| 2026-05-05 21:17 | -15.15842 | -38.38423 | 31083 ft | 494 kts | 25° |
| 2026-05-05 21:18 | -15.09691 | -38.35080 | 31080 ft | 493 kts | 25° |
| 2026-05-05 21:18 | -15.03492 | -38.31713 | 31072 ft | 494 kts | 24° |
| 2026-05-05 21:19 | -14.97339 | -38.28375 | 31071 ft | 493 kts | 24° |
| 2026-05-05 21:19 | -14.91191 | -38.25041 | 31068 ft | 493 kts | 24° |
| 2026-05-05 21:20 | -14.85076 | -38.21728 | 31068 ft | 493 kts | 24° |
| 2026-05-05 21:20 | -14.78896 | -38.18382 | 31069 ft | 492 kts | 24° |
| 2026-05-05 21:21 | -14.72793 | -38.15078 | 31066 ft | 492 kts | 24° |
| 2026-05-05 21:21 | -14.66654 | -38.11758 | 31071 ft | 492 kts | 24° |
| 2026-05-05 21:22 | -14.60521 | -38.08444 | 31061 ft | 491 kts | 24° |
| 2026-05-05 21:22 | -14.54392 | -38.05133 | 31063 ft | 491 kts | 24° |
| 2026-05-05 21:23 | -14.48301 | -38.01845 | 31064 ft | 491 kts | 24° |
| 2026-05-05 21:23 | -14.42197 | -37.98553 | 31057 ft | 491 kts | 24° |
| 2026-05-05 21:24 | -14.36059 | -37.95244 | 31061 ft | 492 kts | 24° |
| 2026-05-05 21:24 | -14.29914 | -37.91933 | 31055 ft | 491 kts | 24° |
| 2026-05-05 21:25 | -14.23815 | -37.88649 | 31057 ft | 490 kts | 24° |
| 2026-05-05 21:25 | -14.17689 | -37.85352 | 31059 ft | 491 kts | 24° |
| 2026-05-05 21:26 | -14.11554 | -37.82054 | 31054 ft | 491 kts | 24° |
| 2026-05-05 21:26 | -14.05406 | -37.78749 | 31055 ft | 491 kts | 24° |
| 2026-05-05 21:27 | -13.99280 | -37.75459 | 31056 ft | 491 kts | 24° |
| 2026-05-05 21:27 | -13.93192 | -37.72191 | 31053 ft | 491 kts | 24° |
| 2026-05-05 21:28 | -13.87081 | -37.68912 | 31056 ft | 490 kts | 24° |
| 2026-05-05 21:28 | -13.80983 | -37.65643 | 31058 ft | 489 kts | 24° |
| 2026-05-05 21:29 | -13.74873 | -37.62369 | 31060 ft | 491 kts | 24° |
| 2026-05-05 21:29 | -13.68768 | -37.59100 | 31058 ft | 491 kts | 24° |
| 2026-05-05 21:30 | -13.62656 | -37.55829 | 31060 ft | 490 kts | 24° |
| 2026-05-05 21:30 | -13.56534 | -37.52554 | 31056 ft | 490 kts | 25° |
| 2026-05-05 21:31 | -13.50405 | -37.49278 | 31058 ft | 490 kts | 24° |
| 2026-05-05 21:31 | -13.44292 | -37.46012 | 31057 ft | 490 kts | 25° |
| 2026-05-05 21:32 | -13.39217 | -37.43302 | 31056 ft | 491 kts | 25° |